Schedule Details


Flight Number: CTN341
Departure: Sarajevo (LQSA) at 06:30
Arrival: Franjo Tudman (LDZA) at 07:20
Route: BOSNA L608 KOMAR L187 TEBLI

Weather Information
LQSA 221630Z VRB02KT CAVOK 18/11 Q1018 NOSIG
LDZA 221630Z VRB02KT CAVOK 18/12 Q1016 NOSIG
Schedule Frequency

Route Map